Time;durP1;ratioP1;P1;durP2;ratioP2;P2;SDS_P1;SDS_P2;PMS_P1;PMS_P2;Temp;Humidity;BMP_temperature;BMP_pressure;BME280_temperature;BME280_humidity;BME280_pressure;Samples;Min_cycle;Max_cycle;Signal;HPM_P1;HPM_P2
2022/07/03 00:01:30;;;;;;;;;;;17.80;99.90;;;;;;5046456;28;20024;-67
2022/07/03 00:03:57;;;;;;;;;;;17.70;99.90;;;;;;5066013;28;19975;-68
2022/07/03 00:06:25;;;;;;;;;;;17.80;99.90;;;;;;5042982;28;19933;-68
2022/07/03 00:08:52;;;;;;;;;;;17.70;99.90;;;;;;5048639;28;20388;-68
2022/07/03 00:11:19;;;;;;;;;;;17.60;99.90;;;;;;5049104;28;19932;-67
2022/07/03 00:13:46;;;;;;;;;;;17.50;99.90;;;;;;5049190;28;19928;-68
2022/07/03 00:16:12;;;;;;;;;;;17.40;99.90;;;;;;5048919;28;19989;-68
2022/07/03 00:18:39;;;;;;;;;;;17.40;99.90;;;;;;5049365;28;20359;-68
2022/07/03 00:21:06;;;;;;;;;;;17.50;99.90;;;;;;5049250;28;19983;-68
2022/07/03 00:23:40;;;;;;;;;;;17.50;99.90;;;;;;5048880;28;19925;-68
2022/07/03 00:26:08;;;;;;;;;;;17.50;99.90;;;;;;5048957;28;19929;-68
2022/07/03 00:28:35;;;;;;;;;;;17.50;99.90;;;;;;5048789;28;19925;-68
2022/07/03 00:31:02;;;;;;;;;;;17.60;99.90;;;;;;5048953;28;19925;-68
2022/07/03 00:33:30;;;;;;;;;;;17.70;99.90;;;;;;5046898;28;19924;-68
2022/07/03 00:35:57;;;;;;;;;;;17.70;99.90;;;;;;5049237;28;19931;-68
2022/07/03 00:38:25;;;;;;;;;;;17.70;99.90;;;;;;5048825;28;20403;-68
2022/07/03 00:40:53;;;;;;;;;;;17.70;99.90;;;;;;5049007;28;19974;-68
2022/07/03 00:43:20;;;;;;;;;;;17.70;99.90;;;;;;5049106;28;19963;-68
2022/07/03 00:45:48;;;;;;;;;;;17.70;99.90;;;;;;5048752;28;19928;-68
2022/07/03 00:48:15;;;;;;;;;;;17.70;99.90;;;;;;5049099;28;19971;-67
2022/07/03 00:50:47;;;;;;;;;;;17.60;99.90;;;;;;5048503;28;20420;-68
2022/07/03 00:53:18;;;;;;;;;;;17.50;99.90;;;;;;5065246;28;19988;-68
2022/07/03 00:55:48;;;;;;;;;;;17.30;99.90;;;;;;5046580;28;19932;-67
2022/07/03 00:58:16;;;;;;;;;;;17.20;99.90;;;;;;5048596;28;19925;-68
2022/07/03 01:00:43;;;;;;;;;;;17.00;99.90;;;;;;5062114;28;19988;-68
2022/07/03 01:03:14;;;;;;;;;;;17.00;99.90;;;;;;5049022;28;19929;-68
2022/07/03 01:05:43;;;;;;;;;;;17.00;99.90;;;;;;5048445;28;19983;-68
2022/07/03 01:08:12;;;;;;;;;;;17.00;99.90;;;;;;5049868;28;19933;-68
2022/07/03 01:10:45;;;;;;;;;;;16.90;99.90;;;;;;5052037;28;19924;-69
2022/07/03 01:13:14;;;;;;;;;;;16.80;99.90;;;;;;5050103;28;20400;-68
2022/07/03 01:15:50;;;;;;;;;;;16.70;99.90;;;;;;5053170;28;19987;-68
2022/07/03 01:18:35;;;;;;;;;;;16.60;99.90;;;;;;5050556;28;20416;-68
2022/07/03 01:21:07;;;;;;;;;;;16.70;99.90;;;;;;5065087;28;19928;-68
2022/07/03 01:23:51;;;;;;;;;;;16.70;99.90;;;;;;5050797;28;19979;-68
2022/07/03 01:26:20;;;;;;;;;;;16.60;99.90;;;;;;5052157;28;19966;-68
2022/07/03 01:28:47;;;;;;;;;;;16.50;99.90;;;;;;5051779;28;19929;-71
2022/07/03 01:31:19;;;;;;;;;;;16.50;99.90;;;;;;5051736;28;19937;-68
2022/07/03 01:33:47;;;;;;;;;;;16.40;99.90;;;;;;5051844;28;19925;-68
2022/07/03 01:36:15;;;;;;;;;;;16.40;99.90;;;;;;5051614;28;20400;-68
2022/07/03 01:38:43;;;;;;;;;;;16.30;99.90;;;;;;5051761;28;19978;-68
2022/07/03 01:41:10;;;;;;;;;;;16.30;99.90;;;;;;5051612;28;19925;-68
2022/07/03 01:43:39;;;;;;;;;;;16.40;99.90;;;;;;5051103;28;19974;-68
2022/07/03 01:46:06;;;;;;;;;;;16.50;99.90;;;;;;5051881;28;19971;-67
2022/07/03 01:48:33;;;;;;;;;;;16.50;99.90;;;;;;5051137;28;19978;-68
2022/07/03 01:51:01;;;;;;;;;;;16.50;99.90;;;;;;5049497;28;20289;-68
2022/07/03 01:53:29;;;;;;;;;;;16.50;99.90;;;;;;5052468;28;20281;-68
2022/07/03 01:55:56;;;;;;;;;;;16.50;99.90;;;;;;5051376;28;20019;-68
2022/07/03 01:58:22;;;;;;;;;;;16.50;99.90;;;;;;5067065;28;19971;-67
2022/07/03 02:00:53;;;;;;;;;;;16.60;99.90;;;;;;5051296;28;20385;-68
2022/07/03 02:03:28;;;;;;;;;;;16.60;99.90;;;;;;5051206;28;20356;-68
2022/07/03 02:06:00;;;;;;;;;;;16.60;99.90;;;;;;5063737;28;19979;-68
2022/07/03 02:08:30;;;;;;;;;;;16.60;99.90;;;;;;5051459;28;20346;-68
2022/07/03 02:11:04;;;;;;;;;;;16.60;99.90;;;;;;5047359;28;19925;-68
2022/07/03 02:13:33;;;;;;;;;;;16.50;99.90;;;;;;5049040;28;19932;-68
2022/07/03 02:16:02;;;;;;;;;;;16.50;99.90;;;;;;5051033;28;20332;-67
2022/07/03 02:18:29;;;;;;;;;;;16.40;99.90;;;;;;5048831;28;19925;-68
2022/07/03 02:21:04;;;;;;;;;;;16.50;99.90;;;;;;5050839;28;19925;-68
2022/07/03 02:23:32;;;;;;;;;;;16.50;99.90;;;;;;5065962;28;19928;-67
2022/07/03 02:26:01;;;;;;;;;;;16.50;99.90;;;;;;5050950;28;19982;-68
2022/07/03 02:28:31;;;;;;;;;;;16.40;99.90;;;;;;5050784;28;19925;-68
2022/07/03 02:31:00;;;;;;;;;;;16.30;99.90;;;;;;5050870;28;19925;-67
2022/07/03 02:33:30;;;;;;;;;;;16.20;99.90;;;;;;5050651;28;20373;-67
2022/07/03 02:35:58;;;;;;;;;;;16.20;99.90;;;;;;5050705;28;19983;-68
2022/07/03 02:38:26;;;;;;;;;;;16.20;99.90;;;;;;5050398;28;20407;-68
2022/07/03 02:40:57;;;;;;;;;;;16.20;99.90;;;;;;5050625;28;20068;-68
2022/07/03 02:43:24;;;;;;;;;;;16.10;99.90;;;;;;5050375;28;20453;-67
2022/07/03 02:45:56;;;;;;;;;;;16.10;99.90;;;;;;5050591;28;19940;-68
2022/07/03 02:48:27;;;;;;;;;;;16.10;99.90;;;;;;5050252;28;19931;-67
2022/07/03 02:50:58;;;;;;;;;;;16.10;99.90;;;;;;5050382;28;20011;-68
2022/07/03 02:53:27;;;;;;;;;;;16.10;99.90;;;;;;5050389;28;19929;-68
2022/07/03 02:55:59;;;;;;;;;;;16.00;99.90;;;;;;5050335;28;20012;-68
2022/07/03 02:58:28;;;;;;;;;;;15.90;99.90;;;;;;5050194;28;20396;-68
2022/07/03 03:00:59;;;;;;;;;;;15.90;99.90;;;;;;5050178;28;19952;-68
2022/07/03 03:03:27;;;;;;;;;;;15.90;99.90;;;;;;5050061;28;19925;-68
2022/07/03 03:05:56;;;;;;;;;;;16.00;99.90;;;;;;5050213;28;19978;-68
2022/07/03 03:08:27;;;;;;;;;;;15.90;99.90;;;;;;5050104;28;19925;-69
2022/07/03 03:10:57;;;;;;;;;;;15.90;99.90;;;;;;5049809;28;20416;-67
2022/07/03 03:13:26;;;;;;;;;;;15.80;99.90;;;;;;5050083;28;19924;-68
2022/07/03 03:15:58;;;;;;;;;;;15.80;99.90;;;;;;5048058;28;19924;-68
2022/07/03 03:18:27;;;;;;;;;;;15.70;99.90;;;;;;5048856;28;20343;-68
2022/07/03 03:20:57;;;;;;;;;;;15.70;99.90;;;;;;5046237;28;20370;-68
2022/07/03 03:23:30;;;;;;;;;;;15.50;99.90;;;;;;5048987;28;19928;-68
2022/07/03 03:25:58;;;;;;;;;;;15.40;99.90;;;;;;5045636;28;19925;-68
2022/07/03 03:28:26;;;;;;;;;;;15.50;99.90;;;;;;5049624;28;20296;-67
2022/07/03 03:30:52;;;;;;;;;;;15.50;99.90;;;;;;5049001;28;19951;-67
2022/07/03 03:33:19;;;;;;;;;;;15.50;99.90;;;;;;5049658;28;19975;-67
2022/07/03 03:35:46;;;;;;;;;;;15.60;99.90;;;;;;5047839;28;19978;-67
2022/07/03 03:38:16;;;;;;;;;;;15.60;99.90;;;;;;5049897;28;19924;-68
2022/07/03 03:40:44;;;;;;;;;;;15.60;99.90;;;;;;5064318;28;19980;-67
2022/07/03 03:43:11;;;;;;;;;;;15.70;99.90;;;;;;5049391;28;19979;-68
2022/07/03 03:45:38;;;;;;;;;;;15.60;99.90;;;;;;5049146;28;19932;-68
2022/07/03 03:48:05;;;;;;;;;;;15.60;99.90;;;;;;5046602;28;20393;-68
2022/07/03 03:50:32;;;;;;;;;;;15.50;99.90;;;;;;5049207;28;19925;-68
2022/07/03 03:53:00;;;;;;;;;;;15.40;99.90;;;;;;5049451;28;19925;-68
2022/07/03 03:55:28;;;;;;;;;;;15.30;99.90;;;;;;5049188;28;19928;-67
2022/07/03 03:57:55;;;;;;;;;;;15.40;99.90;;;;;;5049528;28;19986;-68
2022/07/03 04:00:21;;;;;;;;;;;15.40;99.90;;;;;;5049145;28;20337;-68
2022/07/03 04:02:48;;;;;;;;;;;15.40;99.90;;;;;;5049259;28;20412;-68
2022/07/03 04:05:15;;;;;;;;;;;15.30;99.90;;;;;;5049504;28;19925;-67
2022/07/03 04:07:42;;;;;;;;;;;15.40;99.90;;;;;;5049321;28;19932;-67
2022/07/03 04:10:08;;;;;;;;;;;15.40;99.90;;;;;;5049076;28;19974;-68
2022/07/03 04:12:37;;;;;;;;;;;15.50;99.90;;;;;;5049234;28;19925;-69
2022/07/03 04:15:04;;;;;;;;;;;15.50;99.90;;;;;;5049160;28;19928;-68
2022/07/03 04:17:31;;;;;;;;;;;15.50;99.90;;;;;;5049193;28;19924;-67
2022/07/03 04:19:57;;;;;;;;;;;15.60;99.90;;;;;;5049098;28;19925;-68
2022/07/03 04:22:24;;;;;;;;;;;15.60;99.90;;;;;;5049466;28;19925;-68
2022/07/03 04:24:51;;;;;;;;;;;15.60;99.90;;;;;;5048690;28;19986;-68
2022/07/03 04:27:18;;;;;;;;;;;15.60;99.90;;;;;;5049105;28;19982;-68
2022/07/03 04:29:46;;;;;;;;;;;15.60;99.90;;;;;;5048697;28;19925;-68
2022/07/03 04:32:13;;;;;;;;;;;15.60;99.90;;;;;;5048092;28;19971;-67
2022/07/03 04:34:39;;;;;;;;;;;15.60;99.90;;;;;;5048575;28;19928;-67
2022/07/03 04:37:06;;;;;;;;;;;15.70;99.90;;;;;;5049112;28;20392;-68
2022/07/03 04:39:33;;;;;;;;;;;15.60;99.90;;;;;;5042084;28;19975;-68
2022/07/03 04:42:00;;;;;;;;;;;15.60;99.90;;;;;;5048059;28;19968;-68
2022/07/03 04:44:27;;;;;;;;;;;15.60;99.90;;;;;;5052547;28;20385;-68
2022/07/03 04:46:55;;;;;;;;;;;15.80;99.90;;;;;;5052673;28;19986;-68
2022/07/03 04:49:22;;;;;;;;;;;15.90;99.90;;;;;;5052572;28;20392;-68
2022/07/03 04:51:48;;;;;;;;;;;16.00;99.90;;;;;;5051358;28;20360;-68
2022/07/03 04:54:15;;;;;;;;;;;16.10;99.90;;;;;;5052367;28;19932;-68
2022/07/03 04:56:42;;;;;;;;;;;16.10;99.90;;;;;;5052997;28;19926;-68
2022/07/03 04:59:09;;;;;;;;;;;16.00;99.90;;;;;;5052159;28;19925;-68
2022/07/03 05:01:35;;;;;;;;;;;16.00;99.90;;;;;;5048760;28;20376;-68
2022/07/03 05:04:04;;;;;;;;;;;15.90;99.90;;;;;;5050444;28;20396;-67
2022/07/03 05:06:31;;;;;;;;;;;15.90;99.90;;;;;;5052185;28;19925;-67
2022/07/03 05:08:57;;;;;;;;;;;16.00;99.90;;;;;;5052132;28;19925;-67
2022/07/03 05:11:24;;;;;;;;;;;16.10;99.90;;;;;;5051889;28;20351;-68
2022/07/03 05:13:51;;;;;;;;;;;16.20;99.90;;;;;;5047242;28;19929;-67
2022/07/03 05:16:18;;;;;;;;;;;16.30;99.90;;;;;;5052274;28;19925;-67
2022/07/03 05:18:44;;;;;;;;;;;16.40;99.90;;;;;;5056210;28;19929;-67
2022/07/03 05:21:12;;;;;;;;;;;16.60;99.90;;;;;;5052443;28;20347;-66
2022/07/03 05:23:39;;;;;;;;;;;16.70;99.90;;;;;;5043889;28;19983;-66
2022/07/03 05:26:06;;;;;;;;;;;16.80;99.90;;;;;;5048247;28;19924;-69
2022/07/03 05:28:33;;;;;;;;;;;16.90;99.90;;;;;;5041758;28;19979;-67
2022/07/03 05:30:59;;;;;;;;;;;17.00;99.90;;;;;;5042137;28;19928;-68
2022/07/03 05:33:26;;;;;;;;;;;17.10;99.90;;;;;;5039807;28;19932;-69
2022/07/03 05:35:55;;;;;;;;;;;17.20;99.90;;;;;;5048442;28;19947;-67
2022/07/03 05:41:04;;;;;;;;;;;17.30;99.90;;;;;;5050326;28;20407;-68
2022/07/03 05:43:30;;;;;;;;;;;17.30;99.90;;;;;;5051181;28;19988;-67
2022/07/03 05:45:57;;;;;;;;;;;17.30;99.90;;;;;;5050921;28;19924;-67
2022/07/03 05:48:24;;;;;;;;;;;17.40;99.90;;;;;;5048383;28;19964;-67
2022/07/03 05:50:51;;;;;;;;;;;17.50;99.90;;;;;;5062597;28;19925;-68
2022/07/03 05:53:17;;;;;;;;;;;17.40;99.90;;;;;;5048529;28;19925;-67
2022/07/03 05:55:46;;;;;;;;;;;17.40;99.90;;;;;;5049511;28;19928;-68
2022/07/03 05:58:12;;;;;;;;;;;17.50;99.90;;;;;;5046113;28;19932;-67
2022/07/03 06:00:39;;;;;;;;;;;17.60;99.90;;;;;;5046428;28;19972;-67
2022/07/03 06:03:06;;;;;;;;;;;17.60;99.90;;;;;;5067889;28;19925;-68
2022/07/03 06:05:33;;;;;;;;;;;17.60;99.90;;;;;;5048766;28;19951;-67
2022/07/03 06:08:00;;;;;;;;;;;17.80;99.90;;;;;;5044726;28;20376;-67
2022/07/03 06:10:27;;;;;;;;;;;17.90;99.90;;;;;;5042296;28;19924;-69
2022/07/03 06:12:55;;;;;;;;;;;17.90;99.90;;;;;;5050324;28;19925;-73
2022/07/03 06:15:22;;;;;;;;;;;17.90;99.90;;;;;;5046800;28;19925;-69
2022/07/03 06:17:49;;;;;;;;;;;18.00;99.90;;;;;;5050425;28;19986;-68
2022/07/03 06:20:15;;;;;;;;;;;18.10;99.90;;;;;;5049982;28;19929;-68
2022/07/03 06:22:42;;;;;;;;;;;18.20;99.90;;;;;;5046497;28;19924;-69
2022/07/03 06:25:09;;;;;;;;;;;18.20;99.90;;;;;;5066098;28;19925;-69
2022/07/03 06:27:36;;;;;;;;;;;18.30;99.90;;;;;;5067461;28;19956;-68
2022/07/03 06:30:05;;;;;;;;;;;18.40;99.90;;;;;;5039172;28;19955;-69
2022/07/03 06:32:32;;;;;;;;;;;18.50;99.90;;;;;;5042999;28;19975;-68
2022/07/03 06:34:58;;;;;;;;;;;18.50;99.90;;;;;;5050513;28;19998;-69
2022/07/03 06:37:25;;;;;;;;;;;18.40;99.90;;;;;;5043559;28;19936;-69
2022/07/03 06:39:52;;;;;;;;;;;18.60;99.90;;;;;;5046220;28;19924;-69
2022/07/03 06:42:19;;;;;;;;;;;18.60;99.90;;;;;;5045216;28;20039;-69
2022/07/03 06:44:48;;;;;;;;;;;18.80;99.90;;;;;;5050146;28;20319;-71
2022/07/03 06:47:16;;;;;;;;;;;18.70;99.90;;;;;;5046876;28;20359;-69
2022/07/03 06:49:43;;;;;;;;;;;18.80;99.90;;;;;;5049183;28;19924;-69
2022/07/03 06:52:11;;;;;;;;;;;18.80;99.90;;;;;;5049510;28;20335;-68
2022/07/03 06:54:43;;;;;;;;;;;18.90;99.90;;;;;;5047348;28;20204;-67
2022/07/03 06:57:10;;;;;;;;;;;19.10;99.90;;;;;;5050670;28;20052;-67
2022/07/03 06:59:37;;;;;;;;;;;19.10;99.90;;;;;;5047420;28;20408;-67
2022/07/03 07:02:04;;;;;;;;;;;19.00;99.90;;;;;;5048806;28;19925;-66
2022/07/03 07:04:32;;;;;;;;;;;18.90;99.90;;;;;;5048948;28;19964;-67
2022/07/03 07:06:59;;;;;;;;;;;18.90;99.90;;;;;;5048446;28;19924;-67
2022/07/03 07:09:25;;;;;;;;;;;18.80;99.90;;;;;;5050386;28;19932;-66
2022/07/03 07:11:52;;;;;;;;;;;18.90;99.90;;;;;;5051127;28;19924;-67
2022/07/03 07:14:19;;;;;;;;;;;18.90;99.90;;;;;;5047085;28;20380;-67
2022/07/03 07:16:45;;;;;;;;;;;18.90;99.90;;;;;;5044230;28;19978;-67
2022/07/03 07:19:12;;;;;;;;;;;19.00;99.90;;;;;;5065353;28;19991;-67
2022/07/03 07:21:40;;;;;;;;;;;19.20;99.90;;;;;;5047267;28;20014;-67
2022/07/03 07:24:07;;;;;;;;;;;19.40;99.90;;;;;;5042725;28;19925;-67
2022/07/03 07:26:33;;;;;;;;;;;19.40;99.90;;;;;;5043902;28;20020;-66
2022/07/03 07:29:00;;;;;;;;;;;19.50;99.90;;;;;;5036372;28;20016;-68
2022/07/03 07:31:27;;;;;;;;;;;19.70;99.90;;;;;;5045531;28;19925;-67
2022/07/03 07:33:53;;;;;;;;;;;19.80;99.90;;;;;;5045579;28;20370;-67
2022/07/03 07:36:20;;;;;;;;;;;19.80;99.90;;;;;;5040488;28;19925;-67
2022/07/03 07:38:48;;;;;;;;;;;19.80;99.90;;;;;;5046545;28;20304;-67
2022/07/03 07:41:15;;;;;;;;;;;19.70;99.90;;;;;;5049508;28;19925;-67
2022/07/03 07:43:42;;;;;;;;;;;19.70;99.90;;;;;;5045279;28;19932;-67
2022/07/03 07:46:09;;;;;;;;;;;19.80;99.90;;;;;;5048199;28;19925;-67
2022/07/03 07:48:35;;;;;;;;;;;19.80;99.90;;;;;;5049031;28;19924;-67
2022/07/03 07:51:02;;;;;;;;;;;19.80;99.90;;;;;;5043573;28;19925;-67
2022/07/03 07:53:29;;;;;;;;;;;20.00;99.90;;;;;;5061994;28;19975;-67
2022/07/03 07:55:57;;;;;;;;;;;20.00;99.90;;;;;;5046662;28;20277;-67
2022/07/03 07:58:24;;;;;;;;;;;20.10;99.90;;;;;;5043774;28;19929;-67
2022/07/03 08:06:19;;;;;;;;;;;20.20;99.90;;;;;;5039423;28;19982;-67
2022/07/03 08:08:46;;;;;;;;;;;20.40;99.90;;;;;;5042730;28;20358;-67
2022/07/03 08:11:14;;;;;;;;;;;20.40;99.90;;;;;;5060583;28;19928;-67
2022/07/03 08:13:41;;;;;;;;;;;20.50;99.90;;;;;;5038988;28;19931;-69
2022/07/03 08:16:08;;;;;;;;;;;20.50;99.90;;;;;;5040089;28;19924;-67
2022/07/03 08:18:34;;;;;;;;;;;20.60;99.90;;;;;;5046315;28;19932;-67
2022/07/03 08:21:01;;;;;;;;;;;20.70;99.90;;;;;;5044941;28;19926;-66
2022/07/03 08:23:28;;;;;;;;;;;20.70;99.90;;;;;;5052865;28;19929;-66
2022/07/03 08:25:55;;;;;;;;;;;20.70;99.90;;;;;;5045818;28;19972;-68
2022/07/03 08:28:23;;;;;;;;;;;20.70;99.90;;;;;;5043704;28;19929;-66
2022/07/03 08:30:50;;;;;;;;;;;20.90;99.90;;;;;;5047653;28;19925;-66
2022/07/03 08:33:16;;;;;;;;;;;20.90;99.90;;;;;;5051944;28;20408;-67
2022/07/03 08:35:43;;;;;;;;;;;20.90;99.90;;;;;;5052539;28;20466;-66
2022/07/03 08:38:10;;;;;;;;;;;21.00;99.90;;;;;;5052795;28;19924;-68
2022/07/03 08:40:37;;;;;;;;;;;21.00;99.90;;;;;;5050384;28;19932;-67
2022/07/03 08:43:04;;;;;;;;;;;21.10;99.90;;;;;;5048007;28;19929;-67
2022/07/03 08:45:34;;;;;;;;;;;21.10;99.90;;;;;;5052596;28;19932;-68
2022/07/03 08:48:02;;;;;;;;;;;21.20;99.90;;;;;;5053604;28;20412;-68
2022/07/03 08:50:30;;;;;;;;;;;21.20;99.90;;;;;;5051106;28;20101;-68
2022/07/03 08:52:58;;;;;;;;;;;21.10;99.90;;;;;;5052792;28;19932;-66
2022/07/03 08:55:25;;;;;;;;;;;21.20;99.90;;;;;;5068801;28;19928;-67
2022/07/03 08:57:52;;;;;;;;;;;21.40;99.90;;;;;;5052590;28;20347;-66
2022/07/03 09:00:19;;;;;;;;;;;21.50;99.90;;;;;;5052109;28;19983;-66
2022/07/03 09:02:48;;;;;;;;;;;21.60;99.90;;;;;;5041110;28;19925;-65
2022/07/03 09:05:15;;;;;;;;;;;21.50;99.90;;;;;;5049860;28;19925;-66
2022/07/03 09:07:43;;;;;;;;;;;21.60;99.90;;;;;;5052217;28;19925;-66
2022/07/03 09:10:11;;;;;;;;;;;21.80;99.90;;;;;;5052160;28;19925;-66
2022/07/03 09:12:38;;;;;;;;;;;21.90;99.90;;;;;;5052345;28;20336;-66
2022/07/03 09:15:06;;;;;;;;;;;21.90;99.90;;;;;;5052007;28;19929;-65
2022/07/03 09:17:33;;;;;;;;;;;22.00;99.90;;;;;;5052168;28;19932;-65
2022/07/03 09:20:03;;;;;;;;;;;22.10;99.90;;;;;;5052431;28;19929;-66
2022/07/03 09:22:31;;;;;;;;;;;22.10;99.90;;;;;;5066954;28;19931;-66
2022/07/03 09:25:04;;;;;;;;;;;22.10;99.90;;;;;;5052979;28;20028;-66
2022/07/03 09:27:31;;;;;;;;;;;22.10;99.90;;;;;;5049011;28;19932;-66
2022/07/03 09:29:59;;;;;;;;;;;22.10;99.90;;;;;;5050711;28;19986;-66
2022/07/03 09:32:26;;;;;;;;;;;22.20;99.90;;;;;;5052208;28;20307;-66
2022/07/03 09:35:08;;;;;;;;;;;22.20;99.90;;;;;;5051515;28;19982;-66
2022/07/03 09:37:36;;;;;;;;;;;22.20;99.90;;;;;;5066686;28;19924;-66
2022/07/03 09:40:03;;;;;;;;;;;22.40;99.90;;;;;;5050912;28;20001;-66
2022/07/03 09:42:30;;;;;;;;;;;22.50;99.90;;;;;;5051807;28;19959;-67
2022/07/03 09:44:57;;;;;;;;;;;22.40;99.90;;;;;;5051543;28;20032;-67
2022/07/03 09:47:24;;;;;;;;;;;22.50;99.90;;;;;;5051457;28;19986;-67
2022/07/03 09:49:53;;;;;;;;;;;22.50;99.90;;;;;;5045242;28;19929;-67
2022/07/03 09:52:30;;;;;;;;;;;22.40;99.90;;;;;;5048772;28;19975;-67
2022/07/03 09:54:59;;;;;;;;;;;22.60;99.90;;;;;;5046295;28;19933;-67
2022/07/03 09:57:27;;;;;;;;;;;22.60;99.90;;;;;;5050029;28;19931;-67
2022/07/03 10:00:09;;;;;;;;;;;22.60;99.90;;;;;;5050028;28;19929;-67
2022/07/03 10:02:38;;;;;;;;;;;22.50;99.90;;;;;;5066212;28;20388;-67
2022/07/03 10:05:14;;;;;;;;;;;22.60;99.90;;;;;;5050910;28;20465;-67
2022/07/03 10:07:50;;;;;;;;;;;22.70;99.90;;;;;;5077947;22;19928;-69
2022/07/03 10:10:19;;;;;;;;;;;22.80;99.90;;;;;;5074482;28;20399;-68
2022/07/03 10:12:46;;;;;;;;;;;23.10;99.90;;;;;;5053004;28;19925;-69
2022/07/03 10:15:13;;;;;;;;;;;23.10;99.90;;;;;;5054906;28;20342;-69
2022/07/03 10:17:41;;;;;;;;;;;23.30;99.90;;;;;;5069513;28;19932;-70
2022/07/03 10:20:08;;;;;;;;;;;23.40;99.90;;;;;;5053239;28;19953;-68
2022/07/03 10:22:37;;;;;;;;;;;23.40;99.90;;;;;;5059866;28;19932;-69
2022/07/03 10:25:05;;;;;;;;;;;23.60;99.90;;;;;;5053042;28;20335;-69
2022/07/03 10:27:33;;;;;;;;;;;23.70;99.90;;;;;;5075727;28;19948;-69
2022/07/03 10:30:01;;;;;;;;;;;23.60;99.90;;;;;;5052909;28;19929;-70
2022/07/03 10:32:28;;;;;;;;;;;23.60;99.90;;;;;;5056171;28;19979;-68
2022/07/03 10:34:55;;;;;;;;;;;23.60;99.90;;;;;;5071657;28;20408;-69
2022/07/03 10:37:23;;;;;;;;;;;23.70;99.90;;;;;;5057634;28;20395;-69
2022/07/03 10:39:56;;;;;;;;;;;23.60;99.90;;;;;;5060017;28;19931;-69
2022/07/03 10:45:26;;;;;;;;;;;23.30;99.90;;;;;;5018837;28;20514;-69
2022/07/03 10:47:52;;;;;;;;;;;23.40;99.90;;;;;;5048159;28;19970;-68
2022/07/03 10:50:20;;;;;;;;;;;23.50;99.90;;;;;;5075399;28;19933;-70
2022/07/03 10:52:47;;;;;;;;;;;23.50;99.90;;;;;;5059164;28;20388;-69
2022/07/03 10:55:15;;;;;;;;;;;23.60;99.90;;;;;;5078976;28;19924;-70
2022/07/03 10:57:42;;;;;;;;;;;23.80;99.90;;;;;;5054117;28;19932;-70
2022/07/03 11:00:16;;;;;;;;;;;23.80;99.90;;;;;;5057314;28;19977;-70
2022/07/03 11:02:46;;;;;;;;;;;23.90;99.90;;;;;;5058478;28;20392;-70
2022/07/03 11:05:19;;;;;;;;;;;24.10;99.90;;;;;;5062564;28;19924;-71
2022/07/03 11:08:05;;;;;;;;;;;23.90;99.90;;;;;;5070839;28;19983;-69
2022/07/03 11:10:34;;;;;;;;;;;23.90;99.90;;;;;;5060315;28;19928;-70
2022/07/03 11:13:01;;;;;;;;;;;24.10;99.90;;;;;;5057569;28;19925;-69
2022/07/03 11:15:28;;;;;;;;;;;24.30;99.90;;;;;;5062029;28;19931;-70
2022/07/03 11:18:10;;;;;;;;;;;24.40;99.90;;;;;;5071004;28;19925;-71
2022/07/03 11:20:38;;;;;;;;;;;24.50;99.90;;;;;;5050917;28;19925;-68
2022/07/03 11:23:14;;;;;;;;;;;24.60;99.90;;;;;;5060114;28;19928;-69
2022/07/03 11:25:41;;;;;;;;;;;24.60;99.90;;;;;;5071368;28;19925;-69
2022/07/03 11:28:08;;;;;;;;;;;24.40;99.90;;;;;;5058231;28;19974;-67
2022/07/03 11:30:35;;;;;;;;;;;24.70;99.90;;;;;;5071878;28;19925;-68
2022/07/03 11:33:02;;;;;;;;;;;24.60;99.90;;;;;;5053380;28;19932;-68
2022/07/03 11:35:51;;;;;;;;;;;24.60;99.90;;;;;;5079117;28;19928;-67
2022/07/03 11:38:23;;;;;;;;;;;24.70;99.90;;;;;;5072013;28;20285;-71
2022/07/03 11:40:51;;;;;;;;;;;24.70;99.90;;;;;;5073921;28;19929;-69
2022/07/03 11:43:19;;;;;;;;;;;25.20;99.90;;;;;;5055068;28;19925;-69
2022/07/03 11:45:46;;;;;;;;;;;26.20;99.90;;;;;;5056956;28;20404;-70
2022/07/03 11:48:14;;;;;;;;;;;26.70;99.90;;;;;;5063105;28;20016;-69
2022/07/03 11:50:41;;;;;;;;;;;27.80;99.90;;;;;;5078073;28;19928;-69
2022/07/03 11:53:26;;;;;;;;;;;28.10;99.90;;;;;;5077670;28;19925;-69
2022/07/03 11:55:54;;;;;;;;;;;27.80;99.90;;;;;;5052178;28;20014;-68
2022/07/03 11:58:21;;;;;;;;;;;28.00;99.90;;;;;;5055999;28;19925;-69
2022/07/03 12:00:50;;;;;;;;;;;28.80;99.90;;;;;;5054011;28;19928;-67
2022/07/03 12:03:21;;;;;;;;;;;29.20;99.90;;;;;;5059965;28;20318;-68
2022/07/03 12:05:54;;;;;;;;;;;29.40;99.90;;;;;;5050724;28;19924;-66
2022/07/03 12:08:27;;;;;;;;;;;29.60;99.90;;;;;;5059014;28;19924;-69
2022/07/03 12:11:01;;;;;;;;;;;29.40;99.90;;;;;;5051001;28;20419;-69
2022/07/03 12:13:30;;;;;;;;;;;30.10;99.90;;;;;;5044455;28;19986;-67
2022/07/03 12:16:08;;;;;;;;;;;29.70;99.90;;;;;;5050887;28;19940;-68
2022/07/03 12:18:48;;;;;;;;;;;30.00;99.90;;;;;;5048019;28;19943;-68
2022/07/03 12:21:15;;;;;;;;;;;29.90;99.90;;;;;;5072533;28;19925;-69
2022/07/03 12:23:48;;;;;;;;;;;29.70;99.90;;;;;;5067000;28;19929;-69
2022/07/03 12:26:15;;;;;;;;;;;29.90;99.90;;;;;;5058564;28;20027;-69
2022/07/03 12:28:42;;;;;;;;;;;29.70;99.90;;;;;;5051204;28;20330;-68
2022/07/03 12:31:09;;;;;;;;;;;29.70;99.90;;;;;;5065780;28;20399;-68
2022/07/03 12:33:36;;;;;;;;;;;30.00;99.90;;;;;;5051546;28;19935;-68
2022/07/03 12:36:06;;;;;;;;;;;29.40;99.90;;;;;;5052388;28;19978;-69
2022/07/03 12:38:33;;;;;;;;;;;29.10;99.90;;;;;;5048228;28;19933;-67
2022/07/03 12:41:06;;;;;;;;;;;29.10;99.90;;;;;;5054680;28;20342;-66
2022/07/03 12:43:39;;;;;;;;;;;29.40;99.90;;;;;;5071315;28;20295;-65
2022/07/03 12:46:16;;;;;;;;;;;28.90;99.90;;;;;;5048516;28;19933;-66
2022/07/03 12:48:45;;;;;;;;;;;29.50;99.90;;;;;;5052156;28;19924;-66
2022/07/03 12:51:12;;;;;;;;;;;29.90;99.90;;;;;;5056472;28;20355;-69
2022/07/03 12:53:39;;;;;;;;;;;30.00;99.90;;;;;;5051348;28;20392;-68
2022/07/03 12:56:07;;;;;;;;;;;30.30;99.90;;;;;;5052015;28;19931;-68
2022/07/03 13:01:26;;;;;;;;;;;30.00;99.90;;;;;;5052849;28;20021;-69
2022/07/03 13:03:53;;;;;;;;;;;31.50;99.90;;;;;;5076423;28;19974;-70
2022/07/03 13:06:21;;;;;;;;;;;30.40;99.90;;;;;;5057817;28;19924;-69
2022/07/03 13:08:52;;;;;;;;;;;30.00;99.90;;;;;;5053703;28;19928;-67
2022/07/03 13:11:28;;;;;;;;;;;30.20;99.90;;;;;;5055894;28;19925;-69
2022/07/03 13:14:01;;;;;;;;;;;30.40;99.90;;;;;;5047179;28;20027;-69
2022/07/03 13:16:28;;;;;;;;;;;30.10;99.90;;;;;;5060349;28;19925;-68
2022/07/03 13:18:58;;;;;;;;;;;30.00;99.90;;;;;;5047785;28;19924;-69
2022/07/03 13:21:25;;;;;;;;;;;30.10;99.90;;;;;;5058198;28;19925;-71
2022/07/03 13:23:52;;;;;;;;;;;29.60;99.90;;;;;;5058874;28;19939;-69
2022/07/03 13:26:18;;;;;;;;;;;30.20;99.90;;;;;;5060330;28;20388;-68
2022/07/03 13:28:47;;;;;;;;;;;30.80;99.90;;;;;;5054172;28;20023;-71
2022/07/03 13:31:14;;;;;;;;;;;30.90;99.90;;;;;;5058548;28;19931;-68
2022/07/03 13:33:40;;;;;;;;;;;30.40;99.90;;;;;;5062404;28;19942;-68
2022/07/03 13:36:07;;;;;;;;;;;30.30;99.90;;;;;;5056667;28;19929;-70
2022/07/03 13:38:34;;;;;;;;;;;29.90;99.90;;;;;;5060273;28;19924;-68
2022/07/03 13:41:01;;;;;;;;;;;29.80;99.90;;;;;;5071282;28;19933;-69
2022/07/03 13:43:28;;;;;;;;;;;30.40;99.90;;;;;;5060517;28;19924;-75
2022/07/03 13:46:01;;;;;;;;;;;30.30;99.90;;;;;;5058159;28;19964;-71
2022/07/03 13:48:27;;;;;;;;;;;30.50;99.90;;;;;;5050841;28;19924;-68
2022/07/03 13:50:54;;;;;;;;;;;30.80;99.90;;;;;;5054666;28;20392;-67
2022/07/03 13:53:21;;;;;;;;;;;31.40;99.90;;;;;;5053156;28;20004;-68
2022/07/03 13:55:48;;;;;;;;;;;32.00;99.90;;;;;;5071821;28;19932;-67
2022/07/03 13:58:14;;;;;;;;;;;32.00;99.90;;;;;;5054302;28;19925;-68
2022/07/03 14:00:41;;;;;;;;;;;32.40;99.90;;;;;;5054712;28;19929;-68
2022/07/03 14:03:09;;;;;;;;;;;31.00;99.90;;;;;;5055364;28;20396;-74
2022/07/03 14:05:36;;;;;;;;;;;31.70;99.90;;;;;;5062864;28;19924;-68
2022/07/03 14:08:03;;;;;;;;;;;30.80;99.90;;;;;;5062666;28;19928;-71
2022/07/03 14:10:30;;;;;;;;;;;30.20;99.90;;;;;;5061561;28;19929;-69
2022/07/03 14:12:56;;;;;;;;;;;29.50;99.90;;;;;;5074417;28;19943;-69
2022/07/03 14:15:23;;;;;;;;;;;28.70;99.90;;;;;;5071081;28;19925;-67
2022/07/03 14:17:50;;;;;;;;;;;27.80;99.90;;;;;;5070189;28;19939;-68
2022/07/03 14:20:18;;;;;;;;;;;28.00;99.90;;;;;;5077634;28;20431;-68
2022/07/03 14:22:45;;;;;;;;;;;27.70;99.90;;;;;;5056877;28;19928;-69
2022/07/03 14:25:12;;;;;;;;;;;27.40;99.90;;;;;;5053574;28;19936;-69
2022/07/03 14:33:07;;;;;;;;;;;29.80;99.90;;;;;;5055060;28;19928;-70
2022/07/03 14:35:36;;;;;;;;;;;30.30;99.90;;;;;;5075947;28;20019;-68
2022/07/03 14:38:03;;;;;;;;;;;30.50;99.90;;;;;;5055215;28;19996;-70
2022/07/03 14:40:30;;;;;;;;;;;30.40;99.90;;;;;;5062590;28;19986;-68
2022/07/03 14:42:57;;;;;;;;;;;30.10;99.90;;;;;;5059255;28;19924;-69